CheckWX is a tool to help pilots better visualize weather data.  It is not intended as a substitute for an official pre-flight weather briefing.

07:13:28 UTC

KJDD METAR
Wood County Airport
Mineola/Quitman, Texas, USA
Current

18 mins ago

KJDD 060655Z AUTO 00000KT 7SM BR CLR 15/14 A3006 RMK AO2
Observed
Apr-6 @ 06:55 UTC
Visibility
Flight Rules
VFR
Conditions
Mist
Cloud Levels
  • Clear skies
Temperature
15°C / 59°F
Dewpoint
14°C / 57°F
Humidity
94%
Altimeter
30.06" Hg
Pressure
1017.92 hPa
Previous

38 mins ago

KJDD 060635Z AUTO 00000KT 5SM BR CLR 15/15 A3006 RMK AO2
Observed
Apr-6 @ 06:35 UTC
Visibility
Flight Rules
MVFR
Conditions
Mist
Cloud Levels
  • Clear skies
Temperature
15°C / 59°F
Dewpoint
15°C / 59°F
Humidity
100%
Altimeter
30.06" Hg
Pressure
1017.92 hPa
Previous

58 mins ago

KJDD 060615Z AUTO 00000KT 7SM BR CLR 15/15 A3006 RMK AO2
Observed
Apr-6 @ 06:15 UTC
Visibility
Flight Rules
VFR
Conditions
Mist
Cloud Levels
  • Clear skies
Temperature
15°C / 59°F
Dewpoint
15°C / 59°F
Humidity
100%
Altimeter
30.06" Hg
Pressure
1017.92 hPa